createdAt,value
2019-06-26T00:23:40.654Z,99.90
2019-06-26T00:53:46.066Z,99.90
2019-06-26T01:23:51.587Z,99.90
2019-06-26T01:53:56.866Z,99.90
2019-06-26T02:24:03.813Z,99.90
2019-06-26T02:54:09.210Z,99.90
2019-06-26T03:24:14.491Z,99.90
2019-06-26T03:54:19.756Z,99.90
2019-06-26T04:24:25.043Z,99.90
2019-06-26T04:54:30.254Z,99.90
2019-06-26T05:24:35.720Z,99.90
2019-06-26T05:54:41.138Z,99.90
2019-06-26T06:24:46.679Z,99.90
2019-06-26T06:54:52.011Z,99.90
2019-06-26T07:25:00.134Z,99.90
2019-06-26T07:55:07.170Z,99.90
2019-06-26T08:25:12.634Z,99.90
2019-06-26T08:55:18.015Z,99.90
2019-06-26T09:25:23.417Z,99.90
2019-06-26T09:55:28.644Z,99.40
2019-06-26T10:25:33.934Z,96.40
2019-06-26T10:55:39.336Z,94.30
2019-06-26T11:25:44.781Z,92.40
2019-06-26T11:55:51.010Z,91.40
2019-06-26T12:25:56.441Z,91.40
2019-06-26T12:56:01.892Z,83.30
2019-06-26T13:26:07.142Z,78.80
2019-06-26T13:56:12.469Z,82.50
2019-06-26T14:26:17.925Z,73.90
2019-06-26T14:56:23.535Z,75.20
2019-06-26T15:26:29.123Z,75.40
2019-06-26T15:56:34.583Z,76.90
2019-06-26T16:26:40.015Z,77.30
2019-06-26T16:56:45.858Z,75.30
2019-06-26T17:26:51.223Z,73.90
2019-06-26T17:56:56.795Z,72.10
2019-06-26T18:27:02.153Z,69.60
2019-06-26T18:57:07.535Z,69.60
2019-06-26T19:27:12.831Z,70.30
2019-06-26T19:57:18.206Z,70.90
2019-06-26T20:27:23.593Z,71.40
2019-06-26T20:57:28.848Z,70.90
2019-06-26T21:27:35.874Z,71.40
2019-06-26T21:57:41.166Z,72.60
2019-06-26T22:28:04.416Z,75.70
2019-06-26T22:58:09.799Z,78.60
2019-06-26T23:28:15.077Z,82.90
2019-06-26T23:58:20.404Z,87.30
